createdAt,value
2019-01-04T00:01:39.480Z,3.50
2019-01-04T00:04:20.372Z,3.30
2019-01-04T00:06:48.340Z,3.40
2019-01-04T00:09:16.533Z,3.30
2019-01-04T00:11:44.588Z,3.40
2019-01-04T00:14:12.819Z,3.40
2019-01-04T00:16:40.989Z,3.20
2019-01-04T00:19:08.686Z,3.00
2019-01-04T00:21:36.834Z,3.20
2019-01-04T00:24:05.163Z,3.10
2019-01-04T00:26:32.986Z,3.10
2019-01-04T00:29:03.392Z,3.10
2019-01-04T00:31:31.484Z,3.00
2019-01-04T00:33:59.680Z,3.00
2019-01-04T00:36:28.130Z,3.00
2019-01-04T00:38:56.285Z,3.00
2019-01-04T00:41:24.819Z,3.10
2019-01-04T00:43:55.429Z,3.10
2019-01-04T00:46:23.540Z,3.00
2019-01-04T00:48:51.746Z,3.00
2019-01-04T00:51:19.832Z,2.90
2019-01-04T00:53:48.096Z,2.90
2019-01-04T00:56:56.586Z,2.80
2019-01-04T01:00:00.712Z,2.90
2019-01-04T01:02:54.332Z,2.90
2019-01-04T01:06:00.488Z,3.00
2019-01-04T01:09:08.980Z,2.90
2019-01-04T01:12:04.390Z,3.00
2019-01-04T01:15:15.752Z,2.90
2019-01-04T01:17:57.805Z,2.90
2019-01-04T01:21:21.851Z,2.80
2019-01-04T01:24:36.380Z,2.80
2019-01-04T01:27:36.357Z,2.80
2019-01-04T01:30:41.048Z,2.80
2019-01-04T01:33:42.844Z,2.80
2019-01-04T01:36:47.998Z,2.80
2019-01-04T01:40:11.470Z,2.90
2019-01-04T01:43:47.639Z,2.90
2019-01-04T01:46:45.922Z,2.80
2019-01-04T01:49:57.016Z,2.80
2019-01-04T01:52:41.292Z,2.90
2019-01-04T01:55:09.476Z,2.90
2019-01-04T01:57:37.421Z,2.90
2019-01-04T02:00:16.910Z,3.00
2019-01-04T02:02:48.101Z,3.10
2019-01-04T02:05:15.984Z,3.10
2019-01-04T02:07:44.280Z,3.10
2019-01-04T02:10:12.678Z,3.10
2019-01-04T02:12:40.894Z,3.00
2019-01-04T02:15:09.069Z,3.10
2019-01-04T02:17:38.697Z,3.10
2019-01-04T02:20:07.250Z,3.20
2019-01-04T02:22:36.028Z,3.20
2019-01-04T02:25:04.958Z,3.20
2019-01-04T02:27:35.708Z,3.20
2019-01-04T02:30:08.176Z,3.30
2019-01-04T02:32:39.682Z,3.30
2019-01-04T02:35:08.203Z,3.30
2019-01-04T02:37:36.249Z,3.20
2019-01-04T02:40:04.618Z,3.20
2019-01-04T02:42:33.092Z,3.30
2019-01-04T02:45:00.728Z,3.40
2019-01-04T02:47:28.762Z,3.40
2019-01-04T02:49:56.420Z,3.30
2019-01-04T02:52:23.890Z,3.20
2019-01-04T02:54:51.436Z,3.30
2019-01-04T02:57:19.215Z,3.30
2019-01-04T02:59:47.162Z,3.10
2019-01-04T03:02:15.846Z,3.00
2019-01-04T03:04:47.251Z,3.00
2019-01-04T03:07:15.428Z,3.00
2019-01-04T03:09:45.827Z,3.10
2019-01-04T03:12:17.197Z,3.30
2019-01-04T03:14:45.661Z,3.30
2019-01-04T03:17:14.340Z,3.40
2019-01-04T03:19:44.059Z,3.40
2019-01-04T03:22:12.617Z,3.50
2019-01-04T03:24:43.871Z,3.50
2019-01-04T03:27:12.693Z,3.60
2019-01-04T03:29:41.392Z,3.60
2019-01-04T03:32:14.211Z,3.60
2019-01-04T03:34:42.764Z,3.70
2019-01-04T03:37:14.191Z,3.70
2019-01-04T03:39:46.962Z,3.70
2019-01-04T03:42:18.096Z,3.60
2019-01-04T03:44:46.933Z,3.60
2019-01-04T03:47:15.795Z,3.60
2019-01-04T03:49:54.154Z,3.60
2019-01-04T03:52:26.421Z,3.60
2019-01-04T03:55:07.538Z,3.70
2019-01-04T03:57:47.156Z,3.60
2019-01-04T04:00:22.322Z,3.50
2019-01-04T04:03:08.977Z,3.50
2019-01-04T04:05:42.127Z,3.60
2019-01-04T04:08:33.857Z,3.60
2019-01-04T04:11:15.630Z,3.70
2019-01-04T04:13:44.836Z,3.70
2019-01-04T04:16:17.502Z,3.80
2019-01-04T04:18:51.169Z,3.90
2019-01-04T04:21:21.034Z,3.90
2019-01-04T04:23:52.357Z,3.90
2019-01-04T04:26:22.743Z,3.90
2019-01-04T04:28:53.853Z,3.90
2019-01-04T04:31:22.988Z,3.90
2019-01-04T04:33:52.840Z,3.80
2019-01-04T04:36:23.243Z,3.80
2019-01-04T04:38:51.947Z,3.70
2019-01-04T04:41:24.603Z,3.80
2019-01-04T04:43:59.244Z,3.80
2019-01-04T04:46:32.648Z,3.90
2019-01-04T04:49:12.111Z,3.80
2019-01-04T04:51:54.202Z,3.70
2019-01-04T04:54:36.611Z,3.70
2019-01-04T04:57:06.408Z,3.70
2019-01-04T04:59:36.378Z,3.70
2019-01-04T05:02:04.964Z,3.60
2019-01-04T05:04:37.910Z,3.40
2019-01-04T05:07:15.247Z,3.40
2019-01-04T05:09:50.868Z,3.30
2019-01-04T05:12:23.826Z,3.40
2019-01-04T05:14:57.275Z,3.30
2019-01-04T05:17:26.644Z,3.30
2019-01-04T05:20:07.997Z,3.20
2019-01-04T05:22:38.113Z,3.30
2019-01-04T05:25:09.865Z,3.20
2019-01-04T05:27:41.874Z,3.10
2019-01-04T05:30:15.698Z,3.10
2019-01-04T05:32:49.577Z,3.00
2019-01-04T05:35:17.696Z,3.00
2019-01-04T05:37:48.243Z,3.10
2019-01-04T05:40:18.321Z,3.00
2019-01-04T05:42:48.213Z,3.00
2019-01-04T05:45:16.044Z,3.10
2019-01-04T05:47:48.982Z,3.10
2019-01-04T05:50:19.898Z,3.10
2019-01-04T05:52:50.630Z,2.90
2019-01-04T05:55:19.135Z,2.80
2019-01-04T05:57:46.872Z,2.70
2019-01-04T06:00:23.355Z,2.70
2019-01-04T06:02:57.914Z,2.70
2019-01-04T06:05:27.733Z,2.70
2019-01-04T06:07:55.863Z,2.60
2019-01-04T06:10:29.356Z,2.50
2019-01-04T06:13:03.339Z,2.50
2019-01-04T06:15:32.395Z,2.40
2019-01-04T06:18:07.465Z,2.40
2019-01-04T06:20:37.898Z,2.40
2019-01-04T06:23:07.593Z,2.50
2019-01-04T06:25:35.541Z,2.60
2019-01-04T06:28:03.400Z,2.70
2019-01-04T06:30:34.067Z,2.80
2019-01-04T06:33:10.863Z,2.90
2019-01-04T06:35:39.467Z,3.10
2019-01-04T06:38:07.012Z,3.10
2019-01-04T06:40:34.847Z,3.10
2019-01-04T06:43:02.949Z,2.90
2019-01-04T06:45:37.418Z,3.00
2019-01-04T06:48:10.538Z,2.90
2019-01-04T06:50:42.454Z,2.80
2019-01-04T06:53:13.512Z,2.80
2019-01-04T06:56:00.962Z,2.80
2019-01-04T06:58:31.781Z,2.90
2019-01-04T07:00:59.756Z,3.00
2019-01-04T07:03:28.339Z,3.10
2019-01-04T07:05:56.350Z,3.00
2019-01-04T07:08:24.695Z,3.00
2019-01-04T07:10:52.868Z,3.00
2019-01-04T07:13:20.744Z,2.90
2019-01-04T07:15:56.924Z,2.90
2019-01-04T07:18:26.281Z,2.90
2019-01-04T07:20:54.245Z,3.00
2019-01-04T07:23:22.309Z,2.90
2019-01-04T07:25:50.069Z,2.80
2019-01-04T07:28:18.036Z,2.80
2019-01-04T07:30:45.599Z,3.00
2019-01-04T07:33:13.770Z,3.10
2019-01-04T07:35:41.901Z,3.10
2019-01-04T07:38:09.739Z,3.20
2019-01-04T07:40:38.244Z,3.20
2019-01-04T07:43:08.289Z,3.20
2019-01-04T07:45:36.841Z,3.10
2019-01-04T07:48:04.915Z,3.10
2019-01-04T07:50:32.912Z,3.10
2019-01-04T07:53:01.339Z,3.10
2019-01-04T07:55:29.673Z,3.10
2019-01-04T07:57:57.223Z,3.00
2019-01-04T08:00:25.279Z,3.10
2019-01-04T08:02:55.459Z,3.20
2019-01-04T08:05:27.451Z,3.30
2019-01-04T08:07:55.128Z,3.30
2019-01-04T08:10:23.172Z,3.20
2019-01-04T08:12:50.899Z,3.10
2019-01-04T08:15:18.592Z,3.10
2019-01-04T08:17:46.146Z,3.00
2019-01-04T08:20:13.709Z,3.00
2019-01-04T08:22:41.252Z,2.90
2019-01-04T08:25:09.176Z,3.00
2019-01-04T08:27:36.832Z,3.00
2019-01-04T08:30:09.330Z,3.10
2019-01-04T08:32:36.888Z,3.10
2019-01-04T08:35:04.810Z,3.10
2019-01-04T08:37:32.415Z,3.10
2019-01-04T08:40:00.080Z,3.20
2019-01-04T08:42:28.500Z,3.20
2019-01-04T08:44:56.491Z,3.10
2019-01-04T08:47:24.261Z,3.10
2019-01-04T08:49:51.962Z,3.10
2019-01-04T08:52:19.816Z,3.10
2019-01-04T08:54:47.625Z,3.00
2019-01-04T08:57:15.203Z,3.10
2019-01-04T08:59:42.768Z,3.10
2019-01-04T09:02:10.528Z,3.10
2019-01-04T09:04:38.764Z,3.10
2019-01-04T09:07:06.314Z,3.10
2019-01-04T09:09:33.900Z,3.10
2019-01-04T09:12:01.564Z,3.10
2019-01-04T09:14:29.729Z,2.90
2019-01-04T09:17:00.114Z,2.90
2019-01-04T09:19:27.895Z,3.10
2019-01-04T09:21:55.442Z,3.10
2019-01-04T09:24:23.103Z,3.10
2019-01-04T09:26:50.664Z,3.00
2019-01-04T09:29:18.274Z,2.90
2019-01-04T09:31:46.051Z,2.80
2019-01-04T09:34:13.921Z,2.90
2019-01-04T09:36:42.604Z,3.00
2019-01-04T09:39:10.204Z,3.00
2019-01-04T09:41:40.073Z,2.90
2019-01-04T09:44:07.615Z,2.90
2019-01-04T09:46:35.450Z,2.90
2019-01-04T09:49:10.108Z,3.00
2019-01-04T09:51:37.958Z,3.10
2019-01-04T09:54:05.464Z,3.00
2019-01-04T09:56:34.420Z,3.10
2019-01-04T09:59:03.396Z,3.10
2019-01-04T10:01:31.008Z,3.10
2019-01-04T10:03:59.586Z,3.10
2019-01-04T10:06:27.058Z,3.10
2019-01-04T10:08:54.612Z,3.20
2019-01-04T10:11:22.721Z,3.30
2019-01-04T10:13:50.248Z,3.30
2019-01-04T10:16:22.452Z,3.20
2019-01-04T10:18:50.129Z,3.20
2019-01-04T10:21:19.531Z,3.30
2019-01-04T10:23:47.091Z,3.40
2019-01-04T10:26:14.959Z,3.50
2019-01-04T10:28:42.502Z,3.40
2019-01-04T10:31:10.137Z,3.30
2019-01-04T10:33:40.300Z,3.40
2019-01-04T10:36:08.089Z,3.50
2019-01-04T10:38:35.915Z,3.30
2019-01-04T10:41:08.164Z,3.30
2019-01-04T10:43:36.430Z,3.20
2019-01-04T10:46:07.089Z,3.20
2019-01-04T10:48:34.869Z,3.30
2019-01-04T10:51:02.431Z,3.40
2019-01-04T10:53:30.241Z,3.40
2019-01-04T10:55:57.846Z,3.40
2019-01-04T10:58:27.608Z,3.40
2019-01-04T11:00:57.452Z,3.40
2019-01-04T11:03:25.004Z,3.60
2019-01-04T11:05:52.608Z,3.60
2019-01-04T11:08:20.215Z,3.60
2019-01-04T11:10:47.852Z,3.60
2019-01-04T11:13:15.494Z,3.70
2019-01-04T11:15:45.935Z,3.80
2019-01-04T11:18:13.742Z,3.70
2019-01-04T11:20:46.900Z,3.70
2019-01-04T11:24:02.203Z,3.60
2019-01-04T11:26:34.107Z,3.70
2019-01-04T11:29:44.715Z,3.80
2019-01-04T11:33:00.807Z,3.80
2019-01-04T11:35:45.916Z,3.60
2019-01-04T11:38:31.503Z,3.50
2019-01-04T11:41:55.839Z,3.60
2019-01-04T11:44:58.578Z,3.60
2019-01-04T11:48:18.952Z,3.40
2019-01-04T11:51:27.816Z,3.60
2019-01-04T11:53:55.520Z,3.50
2019-01-04T11:56:23.036Z,3.70
2019-01-04T11:58:50.512Z,3.80
2019-01-04T12:01:18.034Z,3.90
2019-01-04T12:03:58.257Z,3.90
2019-01-04T12:06:27.160Z,4.00
2019-01-04T12:08:54.685Z,3.90
2019-01-04T12:11:22.303Z,3.90
2019-01-04T12:13:49.755Z,4.00
2019-01-04T12:16:17.251Z,4.10
2019-01-04T12:18:45.620Z,4.00
2019-01-04T12:21:13.689Z,4.10
2019-01-04T12:23:41.660Z,4.20
2019-01-04T12:26:09.184Z,4.10
2019-01-04T12:28:36.626Z,4.20
2019-01-04T12:31:04.136Z,4.30
2019-01-04T12:33:31.737Z,4.30
2019-01-04T12:35:59.280Z,4.30
2019-01-04T12:38:26.769Z,4.40
2019-01-04T12:40:56.661Z,4.40
2019-01-04T12:43:24.440Z,4.30
2019-01-04T12:45:51.979Z,4.30
2019-01-04T12:48:19.444Z,4.40
2019-01-04T12:50:47.552Z,4.50
2019-01-04T12:53:16.415Z,4.50
2019-01-04T12:55:43.992Z,4.40
2019-01-04T12:58:11.904Z,4.40
2019-01-04T13:00:39.876Z,4.30
2019-01-04T13:03:07.495Z,4.40
2019-01-04T13:05:35.200Z,4.20
2019-01-04T13:08:02.740Z,4.20
2019-01-04T13:10:30.334Z,4.30
2019-01-04T13:12:58.006Z,4.30
2019-01-04T13:15:31.761Z,4.40
2019-01-04T13:17:59.519Z,4.40
2019-01-04T13:20:29.797Z,4.50
2019-01-04T13:23:00.632Z,4.50
2019-01-04T13:25:29.352Z,4.50
2019-01-04T13:27:57.607Z,4.40
2019-01-04T13:30:25.152Z,4.30
2019-01-04T13:32:53.102Z,4.30
2019-01-04T13:35:22.668Z,4.30
2019-01-04T13:37:50.251Z,4.30
2019-01-04T13:40:17.937Z,4.30
2019-01-04T13:42:45.440Z,4.40
2019-01-04T13:45:13.048Z,4.40
2019-01-04T13:47:40.523Z,4.40
2019-01-04T13:50:07.952Z,4.50
2019-01-04T13:52:35.456Z,4.40
2019-01-04T13:55:03.108Z,4.30
2019-01-04T13:57:30.619Z,4.20
2019-01-04T13:59:58.128Z,4.30
2019-01-04T14:02:26.173Z,4.20
2019-01-04T14:04:53.683Z,4.30
2019-01-04T14:07:21.183Z,4.40
2019-01-04T14:09:48.696Z,4.30
2019-01-04T14:12:16.260Z,4.30
2019-01-04T14:14:44.660Z,4.00
2019-01-04T14:17:12.957Z,3.90
2019-01-04T14:19:40.659Z,4.00
2019-01-04T14:22:08.169Z,4.00
2019-01-04T14:24:35.660Z,4.10
2019-01-04T14:27:16.281Z,4.20
2019-01-04T14:29:44.307Z,4.20
2019-01-04T14:32:11.815Z,4.20
2019-01-04T14:34:39.437Z,4.10
2019-01-04T14:37:07.768Z,3.90
2019-01-04T14:39:35.276Z,3.90
2019-01-04T14:42:04.130Z,3.90
2019-01-04T14:44:32.063Z,3.90
2019-01-04T14:47:00.177Z,4.00
2019-01-04T14:49:27.747Z,4.10
2019-01-04T14:51:55.299Z,4.00
2019-01-04T14:54:22.792Z,3.90
2019-01-04T14:56:50.592Z,3.90
2019-01-04T14:59:19.221Z,3.80
2019-01-04T15:01:46.700Z,3.90
2019-01-04T15:04:14.897Z,3.90
2019-01-04T15:06:42.607Z,4.00
2019-01-04T15:09:10.304Z,4.20
2019-01-04T15:11:37.795Z,4.20
2019-01-04T15:14:05.725Z,4.10
2019-01-04T15:16:33.246Z,4.20
2019-01-04T15:19:00.731Z,4.20
2019-01-04T15:21:29.296Z,4.20
2019-01-04T15:23:56.909Z,4.10
2019-01-04T15:26:24.512Z,4.10
2019-01-04T15:28:52.041Z,4.00
2019-01-04T15:31:19.584Z,4.00
2019-01-04T15:33:47.096Z,3.90
2019-01-04T15:36:14.632Z,3.80
2019-01-04T15:38:42.192Z,3.70
2019-01-04T15:41:10.249Z,3.60
2019-01-04T15:43:37.750Z,3.60
2019-01-04T15:46:10.301Z,3.60
2019-01-04T15:48:38.460Z,3.50
2019-01-04T15:51:06.024Z,3.40
2019-01-04T15:53:33.826Z,3.40
2019-01-04T15:56:01.400Z,3.40
2019-01-04T15:58:28.929Z,3.30
2019-01-04T16:00:56.633Z,3.40
2019-01-04T16:03:24.109Z,3.40
2019-01-04T16:05:52.277Z,3.40
2019-01-04T16:08:19.844Z,3.50
2019-01-04T16:10:47.416Z,3.60
2019-01-04T16:13:14.949Z,3.60
2019-01-04T16:15:42.751Z,3.60
2019-01-04T16:18:10.280Z,3.70
2019-01-04T16:20:37.761Z,3.80
2019-01-04T16:23:05.271Z,3.80
2019-01-04T16:25:32.787Z,3.80
2019-01-04T16:28:00.595Z,3.90
2019-01-04T16:30:28.183Z,4.00
2019-01-04T16:32:55.664Z,4.00
2019-01-04T16:35:23.176Z,4.00
2019-01-04T16:37:50.670Z,4.00
2019-01-04T16:40:18.184Z,3.90
2019-01-04T16:42:45.855Z,3.90
2019-01-04T16:45:13.985Z,3.80
2019-01-04T16:47:41.528Z,3.90
2019-01-04T16:50:09.128Z,3.80
2019-01-04T16:52:36.591Z,3.90
2019-01-04T16:55:04.789Z,4.00
2019-01-04T16:57:32.258Z,4.10
2019-01-04T16:59:59.813Z,4.20
2019-01-04T17:02:27.366Z,4.20
2019-01-04T17:04:54.880Z,4.10
2019-01-04T17:07:22.367Z,3.80
2019-01-04T17:10:00.957Z,3.60
2019-01-04T17:12:37.607Z,3.50
2019-01-04T17:15:08.318Z,3.60
2019-01-04T17:17:40.142Z,3.70
2019-01-04T17:20:09.439Z,3.80
2019-01-04T17:22:38.508Z,3.90
2019-01-04T17:25:07.714Z,3.90
2019-01-04T17:27:36.621Z,4.00
2019-01-04T17:30:06.640Z,4.00
2019-01-04T17:32:36.192Z,4.00
2019-01-04T17:35:08.272Z,4.00
2019-01-04T17:37:36.218Z,4.10
2019-01-04T17:40:06.254Z,4.10
2019-01-04T17:42:34.893Z,4.10
2019-01-04T17:45:04.333Z,4.10
2019-01-04T17:47:32.170Z,4.10
2019-01-04T17:50:03.447Z,4.30
2019-01-04T17:52:37.092Z,4.20
2019-01-04T17:55:09.933Z,4.10
2019-01-04T17:57:38.614Z,4.10
2019-01-04T18:00:29.594Z,4.10
2019-01-04T18:03:14.294Z,4.00
2019-01-04T18:05:42.699Z,3.80
2019-01-04T18:08:11.906Z,3.70
2019-01-04T18:10:40.754Z,3.70
2019-01-04T18:13:09.174Z,3.60
2019-01-04T18:15:41.339Z,3.60
2019-01-04T18:18:10.225Z,3.60
2019-01-04T18:20:39.848Z,3.60
2019-01-04T18:23:08.325Z,3.60
2019-01-04T18:25:38.370Z,3.60
2019-01-04T18:28:07.440Z,3.60
2019-01-04T18:30:35.975Z,3.70
2019-01-04T18:33:04.910Z,3.70
2019-01-04T18:35:53.222Z,3.70
2019-01-04T18:38:22.249Z,3.70
2019-01-04T18:40:54.643Z,3.70
2019-01-04T18:43:23.720Z,3.80
2019-01-04T18:45:52.420Z,3.70
2019-01-04T18:48:20.919Z,3.60
2019-01-04T18:50:53.757Z,3.60
2019-01-04T18:53:24.002Z,3.40
2019-01-04T18:55:53.019Z,3.40
2019-01-04T18:58:22.690Z,3.40
2019-01-04T19:00:54.803Z,3.40
2019-01-04T19:06:21.540Z,3.20
2019-01-04T19:09:03.497Z,3.30
2019-01-04T19:11:44.520Z,3.20
2019-01-04T19:14:15.438Z,3.00
2019-01-04T19:16:59.411Z,3.10
2019-01-04T19:23:39.646Z,3.10
2019-01-04T19:26:57.431Z,3.20
2019-01-04T19:29:38.956Z,3.20
2019-01-04T19:32:08.255Z,3.10
2019-01-04T19:34:41.816Z,3.10
2019-01-04T19:37:12.660Z,3.00
2019-01-04T19:39:45.279Z,3.10
2019-01-04T19:42:18.779Z,3.10
2019-01-04T19:44:49.222Z,3.00
2019-01-04T19:47:21.060Z,3.20
2019-01-04T19:49:58.088Z,3.00
2019-01-04T19:52:56.618Z,3.10
2019-01-04T19:55:36.591Z,3.10
2019-01-04T19:58:05.307Z,3.10
2019-01-04T20:00:34.148Z,3.10
2019-01-04T20:03:02.889Z,3.00
2019-01-04T20:05:52.250Z,3.00
2019-01-04T20:09:27.063Z,2.90
2019-01-04T20:13:00.604Z,2.90
2019-01-04T20:16:19.750Z,3.10
2019-01-04T20:19:25.131Z,3.10
2019-01-04T20:22:18.037Z,3.00
2019-01-04T20:25:08.141Z,3.10
2019-01-04T20:27:58.621Z,3.00
2019-01-04T20:30:48.524Z,3.10
2019-01-04T20:33:36.601Z,3.10
2019-01-04T20:36:29.430Z,3.20
2019-01-04T20:39:25.013Z,3.20
2019-01-04T20:42:32.646Z,3.20
2019-01-04T20:45:43.276Z,3.10
2019-01-04T20:48:42.918Z,3.00
2019-01-04T20:51:31.283Z,3.00
2019-01-04T20:54:22.264Z,3.00
2019-01-04T20:57:17.679Z,2.80
2019-01-04T21:00:11.011Z,2.90
2019-01-04T21:02:57.661Z,3.00
2019-01-04T21:05:50.832Z,3.00
2019-01-04T21:09:04.516Z,3.00
2019-01-04T21:11:50.424Z,3.10
2019-01-04T21:14:37.464Z,3.10
2019-01-04T21:17:23.105Z,3.10
2019-01-04T21:20:18.169Z,3.20
2019-01-04T21:23:03.891Z,3.20
2019-01-04T21:25:51.260Z,3.40
2019-01-04T21:29:14.414Z,3.40
2019-01-04T21:32:26.688Z,3.40
2019-01-04T21:35:34.649Z,3.40
2019-01-04T21:38:22.007Z,3.50
2019-01-04T21:41:11.641Z,3.60
2019-01-04T21:43:58.953Z,3.60
2019-01-04T21:47:16.179Z,3.60
2019-01-04T21:50:02.485Z,3.70
2019-01-04T21:53:35.542Z,3.80
2019-01-04T21:56:38.913Z,3.80
2019-01-04T21:59:43.801Z,3.80
2019-01-04T22:02:36.605Z,3.80
2019-01-04T22:05:22.684Z,3.70
2019-01-04T22:08:08.726Z,3.70
2019-01-04T22:10:54.286Z,3.80
2019-01-04T22:13:41.621Z,3.70
2019-01-04T22:16:27.273Z,3.60
2019-01-04T22:19:14.352Z,3.60
2019-01-04T22:21:58.297Z,3.70
2019-01-04T22:25:01.694Z,3.80
2019-01-04T22:27:47.472Z,3.90
2019-01-04T22:30:34.870Z,3.90
2019-01-04T22:33:14.067Z,3.90
2019-01-04T22:36:06.856Z,3.90
2019-01-04T22:39:02.603Z,3.90
2019-01-04T22:42:04.649Z,3.90
2019-01-04T22:45:00.549Z,3.90
2019-01-04T22:47:53.344Z,4.00
2019-01-04T22:50:42.100Z,3.90
2019-01-04T22:53:35.283Z,3.80
2019-01-04T22:56:21.074Z,3.70
2019-01-04T22:59:07.640Z,3.70
2019-01-04T23:02:12.796Z,3.50
2019-01-04T23:04:58.827Z,3.50
2019-01-04T23:07:48.527Z,3.40
2019-01-04T23:10:34.195Z,3.30
2019-01-04T23:13:21.203Z,3.30
2019-01-04T23:16:22.961Z,3.30
2019-01-04T23:19:08.909Z,3.40
2019-01-04T23:22:11.951Z,3.50
2019-01-04T23:24:57.500Z,3.50
2019-01-04T23:27:44.588Z,3.40
2019-01-04T23:30:30.119Z,3.40
2019-01-04T23:33:15.973Z,3.30
2019-01-04T23:36:06.106Z,3.30
2019-01-04T23:38:59.073Z,3.30
2019-01-04T23:41:44.657Z,3.20
2019-01-04T23:44:34.633Z,3.20
2019-01-04T23:47:32.232Z,3.10
2019-01-04T23:50:11.396Z,3.10
2019-01-04T23:52:50.472Z,3.20
2019-01-04T23:55:46.390Z,3.20
2019-01-04T23:58:39.345Z,3.30
